sensor_id;sensor_type;location;lat;lon;timestamp;P1;durP1;ratioP1;P2;durP2;ratioP2
58974;SDS011;44751;52.236;5.178;2022-11-20T00:01:10;20.30;;;11.55;;
58974;SDS011;44751;52.236;5.178;2022-11-20T00:03:41;18.55;;;11.60;;
58974;SDS011;44751;52.236;5.178;2022-11-20T00:06:08;19.70;;;12.02;;
58974;SDS011;44751;52.236;5.178;2022-11-20T00:08:49;17.52;;;11.30;;
58974;SDS011;44751;52.236;5.178;2022-11-20T00:11:20;19.45;;;11.57;;
58974;SDS011;44751;52.236;5.178;2022-11-20T00:13:50;16.95;;;9.95;;
58974;SDS011;44751;52.236;5.178;2022-11-20T00:16:19;17.70;;;10.70;;
58974;SDS011;44751;52.236;5.178;2022-11-20T00:18:48;19.48;;;11.38;;
58974;SDS011;44751;52.236;5.178;2022-11-20T00:21:16;17.70;;;10.50;;
58974;SDS011;44751;52.236;5.178;2022-11-20T00:23:47;19.98;;;11.38;;
58974;SDS011;44751;52.236;5.178;2022-11-20T00:26:15;17.95;;;10.88;;
58974;SDS011;44751;52.236;5.178;2022-11-20T00:28:53;18.92;;;11.00;;
58974;SDS011;44751;52.236;5.178;2022-11-20T00:31:21;19.25;;;10.77;;
58974;SDS011;44751;52.236;5.178;2022-11-20T00:33:48;16.58;;;9.90;;
58974;SDS011;44751;52.236;5.178;2022-11-20T00:36:16;18.10;;;10.25;;
58974;SDS011;44751;52.236;5.178;2022-11-20T00:38:44;15.45;;;9.15;;
58974;SDS011;44751;52.236;5.178;2022-11-20T00:41:12;15.77;;;9.85;;
58974;SDS011;44751;52.236;5.178;2022-11-20T00:43:40;16.00;;;9.75;;
58974;SDS011;44751;52.236;5.178;2022-11-20T00:46:09;16.25;;;9.15;;
58974;SDS011;44751;52.236;5.178;2022-11-20T00:48:38;19.83;;;10.68;;
58974;SDS011;44751;52.236;5.178;2022-11-20T00:51:05;15.77;;;9.50;;
58974;SDS011;44751;52.236;5.178;2022-11-20T00:53:31;15.27;;;9.65;;
58974;SDS011;44751;52.236;5.178;2022-11-20T00:55:59;15.25;;;9.65;;
58974;SDS011;44751;52.236;5.178;2022-11-20T00:58:32;16.15;;;9.55;;
58974;SDS011;44751;52.236;5.178;2022-11-20T01:01:00;15.65;;;9.68;;
58974;SDS011;44751;52.236;5.178;2022-11-20T01:03:33;14.02;;;8.63;;
58974;SDS011;44751;52.236;5.178;2022-11-20T01:06:03;16.30;;;9.63;;
58974;SDS011;44751;52.236;5.178;2022-11-20T01:08:32;14.35;;;9.57;;
58974;SDS011;44751;52.236;5.178;2022-11-20T01:11:01;16.02;;;9.43;;
58974;SDS011;44751;52.236;5.178;2022-11-20T01:13:29;17.08;;;9.85;;
58974;SDS011;44751;52.236;5.178;2022-11-20T01:16:11;15.73;;;9.88;;
58974;SDS011;44751;52.236;5.178;2022-11-20T01:18:40;15.85;;;9.68;;
58974;SDS011;44751;52.236;5.178;2022-11-20T01:21:10;15.57;;;9.43;;
58974;SDS011;44751;52.236;5.178;2022-11-20T01:23:39;18.85;;;10.25;;
58974;SDS011;44751;52.236;5.178;2022-11-20T01:26:08;16.38;;;9.63;;
58974;SDS011;44751;52.236;5.178;2022-11-20T01:28:38;17.73;;;9.48;;
58974;SDS011;44751;52.236;5.178;2022-11-20T01:33:41;19.48;;;10.00;;
58974;SDS011;44751;52.236;5.178;2022-11-20T01:36:08;15.93;;;9.73;;
58974;SDS011;44751;52.236;5.178;2022-11-20T01:38:35;17.83;;;9.57;;
58974;SDS011;44751;52.236;5.178;2022-11-20T01:41:02;16.38;;;9.88;;
58974;SDS011;44751;52.236;5.178;2022-11-20T01:43:29;18.00;;;9.65;;
58974;SDS011;44751;52.236;5.178;2022-11-20T01:45:59;19.48;;;10.20;;
58974;SDS011;44751;52.236;5.178;2022-11-20T01:51:35;16.40;;;9.63;;
58974;SDS011;44751;52.236;5.178;2022-11-20T01:54:06;15.70;;;9.93;;
58974;SDS011;44751;52.236;5.178;2022-11-20T01:56:45;19.08;;;10.13;;
58974;SDS011;44751;52.236;5.178;2022-11-20T01:59:14;14.48;;;9.18;;
58974;SDS011;44751;52.236;5.178;2022-11-20T02:01:44;15.23;;;9.18;;
58974;SDS011;44751;52.236;5.178;2022-11-20T02:04:10;16.80;;;9.32;;
58974;SDS011;44751;52.236;5.178;2022-11-20T02:06:43;16.13;;;9.23;;
58974;SDS011;44751;52.236;5.178;2022-11-20T02:09:11;16.83;;;10.07;;
58974;SDS011;44751;52.236;5.178;2022-11-20T02:11:38;13.68;;;9.10;;
58974;SDS011;44751;52.236;5.178;2022-11-20T02:14:07;16.10;;;9.40;;
58974;SDS011;44751;52.236;5.178;2022-11-20T02:16:34;16.58;;;9.90;;
58974;SDS011;44751;52.236;5.178;2022-11-20T02:19:04;15.55;;;10.15;;
58974;SDS011;44751;52.236;5.178;2022-11-20T02:24:21;15.68;;;9.45;;
58974;SDS011;44751;52.236;5.178;2022-11-20T02:26:56;14.93;;;8.93;;
58974;SDS011;44751;52.236;5.178;2022-11-20T02:29:27;20.15;;;9.82;;
58974;SDS011;44751;52.236;5.178;2022-11-20T02:32:00;13.80;;;8.88;;
58974;SDS011;44751;52.236;5.178;2022-11-20T02:34:28;15.95;;;9.50;;
58974;SDS011;44751;52.236;5.178;2022-11-20T02:36:57;15.38;;;9.27;;
58974;SDS011;44751;52.236;5.178;2022-11-20T02:39:26;15.20;;;9.13;;
58974;SDS011;44751;52.236;5.178;2022-11-20T02:41:54;16.70;;;10.07;;
58974;SDS011;44751;52.236;5.178;2022-11-20T02:44:22;14.45;;;9.00;;
58974;SDS011;44751;52.236;5.178;2022-11-20T02:46:48;15.13;;;9.45;;
58974;SDS011;44751;52.236;5.178;2022-11-20T02:49:14;19.60;;;10.18;;
58974;SDS011;44751;52.236;5.178;2022-11-20T02:51:41;16.55;;;10.13;;
58974;SDS011;44751;52.236;5.178;2022-11-20T02:54:08;17.48;;;9.85;;
58974;SDS011;44751;52.236;5.178;2022-11-20T02:56:34;16.17;;;10.25;;
58974;SDS011;44751;52.236;5.178;2022-11-20T02:59:03;16.13;;;9.85;;
58974;SDS011;44751;52.236;5.178;2022-11-20T03:01:29;16.38;;;9.32;;
58974;SDS011;44751;52.236;5.178;2022-11-20T03:03:58;20.15;;;9.90;;
58974;SDS011;44751;52.236;5.178;2022-11-20T03:06:25;15.38;;;9.32;;
58974;SDS011;44751;52.236;5.178;2022-11-20T03:08:51;17.33;;;9.48;;
58974;SDS011;44751;52.236;5.178;2022-11-20T03:11:18;18.83;;;10.43;;
58974;SDS011;44751;52.236;5.178;2022-11-20T03:13:44;15.45;;;9.20;;
58974;SDS011;44751;52.236;5.178;2022-11-20T03:16:12;17.30;;;9.50;;
58974;SDS011;44751;52.236;5.178;2022-11-20T03:18:41;18.20;;;9.90;;
58974;SDS011;44751;52.236;5.178;2022-11-20T03:21:08;16.35;;;10.48;;
58974;SDS011;44751;52.236;5.178;2022-11-20T03:23:36;14.95;;;8.85;;
58974;SDS011;44751;52.236;5.178;2022-11-20T03:26:16;16.25;;;9.10;;
58974;SDS011;44751;52.236;5.178;2022-11-20T03:28:50;15.30;;;9.75;;
58974;SDS011;44751;52.236;5.178;2022-11-20T03:31:19;14.05;;;8.30;;
58974;SDS011;44751;52.236;5.178;2022-11-20T03:33:49;15.70;;;9.50;;
58974;SDS011;44751;52.236;5.178;2022-11-20T03:36:16;14.75;;;9.07;;
58974;SDS011;44751;52.236;5.178;2022-11-20T03:38:44;15.60;;;9.18;;
58974;SDS011;44751;52.236;5.178;2022-11-20T03:41:12;17.80;;;9.07;;
58974;SDS011;44751;52.236;5.178;2022-11-20T03:43:40;16.38;;;9.27;;
58974;SDS011;44751;52.236;5.178;2022-11-20T03:46:09;16.95;;;9.52;;
58974;SDS011;44751;52.236;5.178;2022-11-20T03:48:35;15.07;;;9.73;;
58974;SDS011;44751;52.236;5.178;2022-11-20T03:51:08;16.23;;;9.18;;
58974;SDS011;44751;52.236;5.178;2022-11-20T03:53:41;16.88;;;9.93;;
58974;SDS011;44751;52.236;5.178;2022-11-20T03:56:13;15.45;;;9.52;;
58974;SDS011;44751;52.236;5.178;2022-11-20T03:58:41;16.00;;;9.18;;
58974;SDS011;44751;52.236;5.178;2022-11-20T04:01:12;16.95;;;9.50;;
58974;SDS011;44751;52.236;5.178;2022-11-20T04:03:41;16.17;;;9.18;;
58974;SDS011;44751;52.236;5.178;2022-11-20T04:06:12;15.88;;;9.13;;
58974;SDS011;44751;52.236;5.178;2022-11-20T04:08:41;16.60;;;9.43;;
58974;SDS011;44751;52.236;5.178;2022-11-20T04:11:12;16.63;;;9.73;;
58974;SDS011;44751;52.236;5.178;2022-11-20T04:13:42;17.17;;;9.95;;
58974;SDS011;44751;52.236;5.178;2022-11-20T04:16:11;17.30;;;9.65;;
58974;SDS011;44751;52.236;5.178;2022-11-20T04:18:38;13.95;;;8.65;;
58974;SDS011;44751;52.236;5.178;2022-11-20T04:21:05;17.23;;;9.57;;
58974;SDS011;44751;52.236;5.178;2022-11-20T04:23:32;17.10;;;9.27;;
58974;SDS011;44751;52.236;5.178;2022-11-20T04:26:06;17.85;;;9.77;;
58974;SDS011;44751;52.236;5.178;2022-11-20T04:28:34;18.83;;;10.00;;
58974;SDS011;44751;52.236;5.178;2022-11-20T04:31:10;17.05;;;9.32;;
58974;SDS011;44751;52.236;5.178;2022-11-20T04:33:46;14.57;;;8.45;;
58974;SDS011;44751;52.236;5.178;2022-11-20T04:38:41;16.95;;;9.52;;
58974;SDS011;44751;52.236;5.178;2022-11-20T04:41:12;13.63;;;8.45;;
58974;SDS011;44751;52.236;5.178;2022-11-20T04:43:45;16.75;;;9.25;;
58974;SDS011;44751;52.236;5.178;2022-11-20T04:46:13;15.35;;;9.05;;
58974;SDS011;44751;52.236;5.178;2022-11-20T04:48:39;16.45;;;9.15;;
58974;SDS011;44751;52.236;5.178;2022-11-20T04:51:06;15.43;;;9.25;;
58974;SDS011;44751;52.236;5.178;2022-11-20T04:53:36;15.18;;;8.60;;
58974;SDS011;44751;52.236;5.178;2022-11-20T04:56:04;17.13;;;9.90;;
58974;SDS011;44751;52.236;5.178;2022-11-20T04:58:32;16.65;;;9.52;;
58974;SDS011;44751;52.236;5.178;2022-11-20T05:01:03;14.00;;;8.98;;
58974;SDS011;44751;52.236;5.178;2022-11-20T05:03:32;12.98;;;7.93;;
58974;SDS011;44751;52.236;5.178;2022-11-20T05:06:02;17.35;;;9.60;;
58974;SDS011;44751;52.236;5.178;2022-11-20T05:08:31;18.25;;;10.60;;
58974;SDS011;44751;52.236;5.178;2022-11-20T05:11:00;18.38;;;10.02;;
58974;SDS011;44751;52.236;5.178;2022-11-20T05:13:30;17.00;;;9.68;;
58974;SDS011;44751;52.236;5.178;2022-11-20T05:16:07;15.88;;;9.32;;
58974;SDS011;44751;52.236;5.178;2022-11-20T05:18:35;14.38;;;9.27;;
58974;SDS011;44751;52.236;5.178;2022-11-20T05:21:06;17.92;;;9.65;;
58974;SDS011;44751;52.236;5.178;2022-11-20T05:23:33;18.48;;;9.90;;
58974;SDS011;44751;52.236;5.178;2022-11-20T05:26:00;18.33;;;9.93;;
58974;SDS011;44751;52.236;5.178;2022-11-20T05:28:27;17.02;;;9.93;;
58974;SDS011;44751;52.236;5.178;2022-11-20T05:34:19;16.20;;;9.60;;
58974;SDS011;44751;52.236;5.178;2022-11-20T05:37:37;17.65;;;10.15;;
58974;SDS011;44751;52.236;5.178;2022-11-20T05:41:26;15.70;;;9.68;;
58974;SDS011;44751;52.236;5.178;2022-11-20T05:46:57;17.73;;;10.15;;
58974;SDS011;44751;52.236;5.178;2022-11-20T05:49:23;15.85;;;9.27;;
58974;SDS011;44751;52.236;5.178;2022-11-20T05:51:50;18.45;;;9.93;;
58974;SDS011;44751;52.236;5.178;2022-11-20T05:54:16;16.63;;;9.40;;
58974;SDS011;44751;52.236;5.178;2022-11-20T05:56:43;15.45;;;9.13;;
58974;SDS011;44751;52.236;5.178;2022-11-20T05:59:11;15.95;;;9.45;;
58974;SDS011;44751;52.236;5.178;2022-11-20T06:01:38;16.20;;;9.40;;
58974;SDS011;44751;52.236;5.178;2022-11-20T06:04:04;18.75;;;9.77;;
58974;SDS011;44751;52.236;5.178;2022-11-20T06:06:31;15.98;;;9.30;;
58974;SDS011;44751;52.236;5.178;2022-11-20T06:08:57;16.35;;;9.38;;
58974;SDS011;44751;52.236;5.178;2022-11-20T06:11:24;18.58;;;10.63;;
58974;SDS011;44751;52.236;5.178;2022-11-20T06:13:53;17.15;;;10.15;;
58974;SDS011;44751;52.236;5.178;2022-11-20T06:16:19;18.65;;;10.32;;
58974;SDS011;44751;52.236;5.178;2022-11-20T06:18:46;17.48;;;10.00;;
58974;SDS011;44751;52.236;5.178;2022-11-20T06:21:17;17.33;;;10.20;;
58974;SDS011;44751;52.236;5.178;2022-11-20T06:23:46;12.50;;;7.93;;
58974;SDS011;44751;52.236;5.178;2022-11-20T06:26:14;17.50;;;9.90;;
58974;SDS011;44751;52.236;5.178;2022-11-20T06:28:44;19.48;;;10.15;;
58974;SDS011;44751;52.236;5.178;2022-11-20T06:31:12;20.00;;;11.40;;
58974;SDS011;44751;52.236;5.178;2022-11-20T06:33:41;18.15;;;11.25;;
58974;SDS011;44751;52.236;5.178;2022-11-20T06:36:12;19.58;;;10.95;;
58974;SDS011;44751;52.236;5.178;2022-11-20T06:38:42;17.77;;;10.73;;
58974;SDS011;44751;52.236;5.178;2022-11-20T06:41:13;19.95;;;11.88;;
58974;SDS011;44751;52.236;5.178;2022-11-20T06:43:50;20.38;;;12.02;;
58974;SDS011;44751;52.236;5.178;2022-11-20T06:46:18;20.05;;;11.65;;
58974;SDS011;44751;52.236;5.178;2022-11-20T06:48:56;18.58;;;11.52;;
58974;SDS011;44751;52.236;5.178;2022-11-20T06:51:25;18.00;;;11.10;;
58974;SDS011;44751;52.236;5.178;2022-11-20T06:53:51;18.48;;;11.88;;
58974;SDS011;44751;52.236;5.178;2022-11-20T06:56:19;21.88;;;12.38;;
58974;SDS011;44751;52.236;5.178;2022-11-20T06:58:53;20.45;;;12.02;;
58974;SDS011;44751;52.236;5.178;2022-11-20T07:01:19;19.33;;;11.80;;
58974;SDS011;44751;52.236;5.178;2022-11-20T07:03:48;19.17;;;11.50;;
58974;SDS011;44751;52.236;5.178;2022-11-20T07:06:17;19.83;;;11.93;;
58974;SDS011;44751;52.236;5.178;2022-11-20T07:08:43;19.70;;;11.75;;
58974;SDS011;44751;52.236;5.178;2022-11-20T07:11:12;19.83;;;11.93;;
58974;SDS011;44751;52.236;5.178;2022-11-20T07:13:39;20.63;;;11.65;;
58974;SDS011;44751;52.236;5.178;2022-11-20T07:16:06;20.05;;;11.60;;
58974;SDS011;44751;52.236;5.178;2022-11-20T07:18:33;18.65;;;11.80;;
58974;SDS011;44751;52.236;5.178;2022-11-20T07:21:01;21.40;;;12.63;;
58974;SDS011;44751;52.236;5.178;2022-11-20T07:23:28;22.20;;;13.02;;
58974;SDS011;44751;52.236;5.178;2022-11-20T07:25:55;21.75;;;13.38;;
58974;SDS011;44751;52.236;5.178;2022-11-20T07:28:22;22.95;;;13.18;;
58974;SDS011;44751;52.236;5.178;2022-11-20T07:30:51;24.40;;;13.77;;
58974;SDS011;44751;52.236;5.178;2022-11-20T07:33:19;22.92;;;14.13;;
58974;SDS011;44751;52.236;5.178;2022-11-20T07:35:46;23.95;;;14.85;;
58974;SDS011;44751;52.236;5.178;2022-11-20T07:38:12;24.42;;;14.35;;
58974;SDS011;44751;52.236;5.178;2022-11-20T07:40:42;24.65;;;13.82;;
58974;SDS011;44751;52.236;5.178;2022-11-20T07:43:08;23.27;;;13.85;;
58974;SDS011;44751;52.236;5.178;2022-11-20T07:45:35;24.58;;;14.95;;
58974;SDS011;44751;52.236;5.178;2022-11-20T07:48:04;32.83;;;21.58;;
58974;SDS011;44751;52.236;5.178;2022-11-20T07:50:34;29.77;;;20.70;;
58974;SDS011;44751;52.236;5.178;2022-11-20T07:53:01;29.42;;;20.10;;
58974;SDS011;44751;52.236;5.178;2022-11-20T07:55:29;26.23;;;16.10;;
58974;SDS011;44751;52.236;5.178;2022-11-20T07:57:56;26.05;;;16.23;;
58974;SDS011;44751;52.236;5.178;2022-11-20T08:00:26;26.40;;;15.40;;
58974;SDS011;44751;52.236;5.178;2022-11-20T08:02:55;24.55;;;15.23;;
58974;SDS011;44751;52.236;5.178;2022-11-20T08:05:22;24.90;;;14.85;;
58974;SDS011;44751;52.236;5.178;2022-11-20T08:07:49;24.42;;;14.77;;
58974;SDS011;44751;52.236;5.178;2022-11-20T08:10:16;27.67;;;16.52;;
58974;SDS011;44751;52.236;5.178;2022-11-20T08:12:47;21.98;;;13.75;;
58974;SDS011;44751;52.236;5.178;2022-11-20T08:15:33;28.42;;;15.70;;
58974;SDS011;44751;52.236;5.178;2022-11-20T08:18:10;26.70;;;15.82;;
58974;SDS011;44751;52.236;5.178;2022-11-20T08:20:37;25.83;;;15.60;;
58974;SDS011;44751;52.236;5.178;2022-11-20T08:23:05;22.58;;;13.60;;
58974;SDS011;44751;52.236;5.178;2022-11-20T08:25:34;22.38;;;14.40;;
58974;SDS011;44751;52.236;5.178;2022-11-20T08:28:05;25.67;;;14.60;;
58974;SDS011;44751;52.236;5.178;2022-11-20T08:30:36;24.60;;;14.82;;
58974;SDS011;44751;52.236;5.178;2022-11-20T08:33:05;23.35;;;14.13;;
58974;SDS011;44751;52.236;5.178;2022-11-20T08:35:37;23.55;;;14.07;;
58974;SDS011;44751;52.236;5.178;2022-11-20T08:38:06;24.17;;;13.82;;
58974;SDS011;44751;52.236;5.178;2022-11-20T08:40:33;24.83;;;14.77;;
58974;SDS011;44751;52.236;5.178;2022-11-20T08:43:00;25.05;;;15.40;;
58974;SDS011;44751;52.236;5.178;2022-11-20T08:45:27;27.90;;;16.10;;
58974;SDS011;44751;52.236;5.178;2022-11-20T08:47:59;39.08;;;20.65;;
58974;SDS011;44751;52.236;5.178;2022-11-20T08:50:27;36.95;;;21.77;;
58974;SDS011;44751;52.236;5.178;2022-11-20T08:52:53;30.50;;;19.02;;
58974;SDS011;44751;52.236;5.178;2022-11-20T08:55:20;26.58;;;16.73;;
58974;SDS011;44751;52.236;5.178;2022-11-20T08:57:46;25.25;;;15.10;;
58974;SDS011;44751;52.236;5.178;2022-11-20T09:00:16;23.77;;;14.77;;
58974;SDS011;44751;52.236;5.178;2022-11-20T09:02:42;25.88;;;14.82;;
58974;SDS011;44751;52.236;5.178;2022-11-20T09:05:09;23.70;;;14.25;;
58974;SDS011;44751;52.236;5.178;2022-11-20T09:07:35;27.02;;;15.75;;
58974;SDS011;44751;52.236;5.178;2022-11-20T09:10:02;26.48;;;14.60;;
58974;SDS011;44751;52.236;5.178;2022-11-20T09:12:35;25.63;;;15.63;;
58974;SDS011;44751;52.236;5.178;2022-11-20T09:15:01;25.35;;;15.05;;
58974;SDS011;44751;52.236;5.178;2022-11-20T09:17:28;21.42;;;12.75;;
58974;SDS011;44751;52.236;5.178;2022-11-20T09:19:54;21.15;;;13.25;;
58974;SDS011;44751;52.236;5.178;2022-11-20T09:22:21;23.00;;;13.90;;
58974;SDS011;44751;52.236;5.178;2022-11-20T09:24:50;22.67;;;13.57;;
58974;SDS011;44751;52.236;5.178;2022-11-20T09:27:17;23.55;;;13.15;;
58974;SDS011;44751;52.236;5.178;2022-11-20T09:29:46;22.65;;;14.10;;
58974;SDS011;44751;52.236;5.178;2022-11-20T09:32:13;23.10;;;14.57;;
58974;SDS011;44751;52.236;5.178;2022-11-20T09:34:39;21.55;;;13.80;;
58974;SDS011;44751;52.236;5.178;2022-11-20T09:37:09;23.90;;;14.80;;
58974;SDS011;44751;52.236;5.178;2022-11-20T09:39:38;25.83;;;15.10;;
58974;SDS011;44751;52.236;5.178;2022-11-20T09:45:01;27.15;;;15.85;;
58974;SDS011;44751;52.236;5.178;2022-11-20T09:48:29;25.30;;;15.40;;
58974;SDS011;44751;52.236;5.178;2022-11-20T09:50:48;23.58;;;14.32;;
58974;SDS011;44751;52.236;5.178;2022-11-20T09:53:25;23.00;;;13.73;;
58974;SDS011;44751;52.236;5.178;2022-11-20T09:56:08;23.95;;;14.98;;
58974;SDS011;44751;52.236;5.178;2022-11-20T09:58:41;24.17;;;14.68;;
58974;SDS011;44751;52.236;5.178;2022-11-20T10:01:25;26.23;;;14.75;;
58974;SDS011;44751;52.236;5.178;2022-11-20T10:06:49;23.63;;;14.25;;
58974;SDS011;44751;52.236;5.178;2022-11-20T10:09:19;25.23;;;15.65;;
58974;SDS011;44751;52.236;5.178;2022-11-20T10:14:45;24.40;;;14.65;;
58974;SDS011;44751;52.236;5.178;2022-11-20T10:22:54;22.25;;;14.13;;
58974;SDS011;44751;52.236;5.178;2022-11-20T10:25:30;26.15;;;15.27;;
58974;SDS011;44751;52.236;5.178;2022-11-20T10:30:53;27.48;;;15.10;;
58974;SDS011;44751;52.236;5.178;2022-11-20T10:33:35;24.80;;;14.38;;
58974;SDS011;44751;52.236;5.178;2022-11-20T10:36:08;27.38;;;15.85;;
58974;SDS011;44751;52.236;5.178;2022-11-20T10:38:38;28.02;;;16.27;;
58974;SDS011;44751;52.236;5.178;2022-11-20T10:41:09;27.23;;;15.70;;
58974;SDS011;44751;52.236;5.178;2022-11-20T10:43:56;27.50;;;15.80;;
58974;SDS011;44751;52.236;5.178;2022-11-20T10:46:32;27.25;;;15.98;;
58974;SDS011;44751;52.236;5.178;2022-11-20T10:49:15;27.33;;;15.68;;
58974;SDS011;44751;52.236;5.178;2022-11-20T10:57:20;27.05;;;16.67;;
58974;SDS011;44751;52.236;5.178;2022-11-20T10:59:55;28.05;;;16.75;;
58974;SDS011;44751;52.236;5.178;2022-11-20T11:02:47;31.25;;;17.83;;
58974;SDS011;44751;52.236;5.178;2022-11-20T11:07:49;31.05;;;18.70;;
58974;SDS011;44751;52.236;5.178;2022-11-20T11:10:21;31.17;;;20.10;;
58974;SDS011;44751;52.236;5.178;2022-11-20T11:12:50;32.17;;;21.23;;
58974;SDS011;44751;52.236;5.178;2022-11-20T11:15:35;29.10;;;17.95;;
58974;SDS011;44751;52.236;5.178;2022-11-20T11:18:04;30.30;;;18.77;;
58974;SDS011;44751;52.236;5.178;2022-11-20T11:20:34;33.17;;;19.27;;
58974;SDS011;44751;52.236;5.178;2022-11-20T11:23:01;30.00;;;17.90;;
58974;SDS011;44751;52.236;5.178;2022-11-20T11:25:33;27.40;;;17.33;;
58974;SDS011;44751;52.236;5.178;2022-11-20T11:30:28;34.55;;;20.63;;
58974;SDS011;44751;52.236;5.178;2022-11-20T11:33:03;33.63;;;19.20;;
58974;SDS011;44751;52.236;5.178;2022-11-20T11:35:44;37.05;;;22.27;;
58974;SDS011;44751;52.236;5.178;2022-11-20T11:38:19;31.92;;;19.98;;
58974;SDS011;44751;52.236;5.178;2022-11-20T11:41:04;34.88;;;18.88;;
58974;SDS011;44751;52.236;5.178;2022-11-20T11:43:34;34.03;;;19.77;;
58974;SDS011;44751;52.236;5.178;2022-11-20T11:48:56;33.88;;;19.75;;
58974;SDS011;44751;52.236;5.178;2022-11-20T11:51:37;35.15;;;19.63;;
58974;SDS011;44751;52.236;5.178;2022-11-20T11:54:13;34.40;;;19.73;;
58974;SDS011;44751;52.236;5.178;2022-11-20T11:56:49;33.83;;;19.63;;
58974;SDS011;44751;52.236;5.178;2022-11-20T11:59:22;37.22;;;19.98;;
58974;SDS011;44751;52.236;5.178;2022-11-20T12:01:59;37.80;;;21.33;;
58974;SDS011;44751;52.236;5.178;2022-11-20T12:04:43;36.40;;;20.10;;
58974;SDS011;44751;52.236;5.178;2022-11-20T12:07:20;40.53;;;21.10;;
58974;SDS011;44751;52.236;5.178;2022-11-20T12:10:00;42.90;;;22.75;;
58974;SDS011;44751;52.236;5.178;2022-11-20T12:12:33;41.50;;;22.77;;
58974;SDS011;44751;52.236;5.178;2022-11-20T12:15:13;41.05;;;21.90;;
58974;SDS011;44751;52.236;5.178;2022-11-20T12:17:49;41.70;;;22.13;;
58974;SDS011;44751;52.236;5.178;2022-11-20T12:20:30;42.33;;;23.33;;
58974;SDS011;44751;52.236;5.178;2022-11-20T12:23:16;42.88;;;22.27;;
58974;SDS011;44751;52.236;5.178;2022-11-20T12:25:54;45.13;;;23.05;;
58974;SDS011;44751;52.236;5.178;2022-11-20T12:28:34;42.78;;;22.95;;
58974;SDS011;44751;52.236;5.178;2022-11-20T12:34:28;41.45;;;23.15;;
58974;SDS011;44751;52.236;5.178;2022-11-20T12:46:33;48.35;;;26.65;;
58974;SDS011;44751;52.236;5.178;2022-11-20T12:49:03;44.75;;;24.30;;
58974;SDS011;44751;52.236;5.178;2022-11-20T12:51:58;48.35;;;25.10;;
58974;SDS011;44751;52.236;5.178;2022-11-20T12:54:50;51.05;;;30.00;;
58974;SDS011;44751;52.236;5.178;2022-11-20T13:04:07;46.30;;;23.65;;
58974;SDS011;44751;52.236;5.178;2022-11-20T13:06:43;46.45;;;24.48;;
58974;SDS011;44751;52.236;5.178;2022-11-20T13:09:24;47.75;;;25.48;;
58974;SDS011;44751;52.236;5.178;2022-11-20T13:14:37;44.83;;;24.40;;
58974;SDS011;44751;52.236;5.178;2022-11-20T13:17:20;44.15;;;23.60;;
58974;SDS011;44751;52.236;5.178;2022-11-20T13:19:56;43.95;;;24.38;;
58974;SDS011;44751;52.236;5.178;2022-11-20T13:22:25;45.00;;;24.63;;
58974;SDS011;44751;52.236;5.178;2022-11-20T13:24:53;42.97;;;24.58;;
58974;SDS011;44751;52.236;5.178;2022-11-20T13:27:25;41.63;;;23.33;;
58974;SDS011;44751;52.236;5.178;2022-11-20T13:32:55;46.45;;;24.50;;
58974;SDS011;44751;52.236;5.178;2022-11-20T13:38:09;40.13;;;22.25;;
58974;SDS011;44751;52.236;5.178;2022-11-20T13:40:54;42.78;;;24.08;;
58974;SDS011;44751;52.236;5.178;2022-11-20T13:43:34;46.80;;;24.63;;
58974;SDS011;44751;52.236;5.178;2022-11-20T13:46:07;46.90;;;24.88;;
58974;SDS011;44751;52.236;5.178;2022-11-20T13:48:41;49.25;;;26.10;;
58974;SDS011;44751;52.236;5.178;2022-11-20T13:51:12;47.38;;;25.30;;
58974;SDS011;44751;52.236;5.178;2022-11-20T14:02:10;59.53;;;31.92;;
58974;SDS011;44751;52.236;5.178;2022-11-20T14:04:41;62.58;;;32.83;;
58974;SDS011;44751;52.236;5.178;2022-11-20T14:07:10;70.68;;;35.13;;
58974;SDS011;44751;52.236;5.178;2022-11-20T14:09:51;45.20;;;25.05;;
58974;SDS011;44751;52.236;5.178;2022-11-20T14:12:27;46.70;;;26.30;;
58974;SDS011;44751;52.236;5.178;2022-11-20T14:14:59;45.33;;;25.60;;
58974;SDS011;44751;52.236;5.178;2022-11-20T14:17:30;46.28;;;25.33;;
58974;SDS011;44751;52.236;5.178;2022-11-20T14:19:59;45.97;;;25.65;;
58974;SDS011;44751;52.236;5.178;2022-11-20T14:22:51;43.72;;;24.65;;
58974;SDS011;44751;52.236;5.178;2022-11-20T14:25:24;44.30;;;24.92;;
58974;SDS011;44751;52.236;5.178;2022-11-20T14:27:53;57.22;;;32.03;;
58974;SDS011;44751;52.236;5.178;2022-11-20T14:30:23;49.95;;;27.73;;
58974;SDS011;44751;52.236;5.178;2022-11-20T14:32:53;47.53;;;25.98;;
58974;SDS011;44751;52.236;5.178;2022-11-20T14:35:30;45.53;;;26.17;;
58974;SDS011;44751;52.236;5.178;2022-11-20T14:38:01;49.45;;;27.23;;
58974;SDS011;44751;52.236;5.178;2022-11-20T14:40:32;56.00;;;29.55;;
58974;SDS011;44751;52.236;5.178;2022-11-20T14:43:24;46.67;;;25.55;;
58974;SDS011;44751;52.236;5.178;2022-11-20T14:45:56;64.97;;;32.70;;
58974;SDS011;44751;52.236;5.178;2022-11-20T14:48:45;52.47;;;29.45;;
58974;SDS011;44751;52.236;5.178;2022-11-20T14:51:23;46.42;;;25.10;;
58974;SDS011;44751;52.236;5.178;2022-11-20T14:53:54;49.72;;;27.80;;
58974;SDS011;44751;52.236;5.178;2022-11-20T14:56:22;54.80;;;28.23;;
58974;SDS011;44751;52.236;5.178;2022-11-20T14:58:57;49.20;;;25.33;;
58974;SDS011;44751;52.236;5.178;2022-11-20T15:01:29;52.78;;;27.05;;
58974;SDS011;44751;52.236;5.178;2022-11-20T15:06:34;48.30;;;25.33;;
58974;SDS011;44751;52.236;5.178;2022-11-20T15:09:02;48.50;;;26.17;;
58974;SDS011;44751;52.236;5.178;2022-11-20T15:11:33;55.35;;;28.25;;
58974;SDS011;44751;52.236;5.178;2022-11-20T15:14:05;52.55;;;27.80;;
58974;SDS011;44751;52.236;5.178;2022-11-20T15:16:32;52.67;;;25.90;;
58974;SDS011;44751;52.236;5.178;2022-11-20T15:18:59;54.58;;;28.40;;
58974;SDS011;44751;52.236;5.178;2022-11-20T15:21:42;44.95;;;26.60;;
58974;SDS011;44751;52.236;5.178;2022-11-20T15:24:09;46.53;;;25.00;;
58974;SDS011;44751;52.236;5.178;2022-11-20T15:26:36;45.28;;;25.60;;
58974;SDS011;44751;52.236;5.178;2022-11-20T15:29:07;53.50;;;27.60;;
58974;SDS011;44751;52.236;5.178;2022-11-20T15:31:38;47.83;;;24.10;;
58974;SDS011;44751;52.236;5.178;2022-11-20T15:34:13;51.53;;;26.27;;
58974;SDS011;44751;52.236;5.178;2022-11-20T15:36:43;47.35;;;26.90;;
58974;SDS011;44751;52.236;5.178;2022-11-20T15:39:09;46.60;;;24.80;;
58974;SDS011;44751;52.236;5.178;2022-11-20T15:41:40;47.08;;;25.00;;
58974;SDS011;44751;52.236;5.178;2022-11-20T15:44:06;50.47;;;27.02;;
58974;SDS011;44751;52.236;5.178;2022-11-20T15:46:35;47.15;;;26.40;;
58974;SDS011;44751;52.236;5.178;2022-11-20T15:51:41;49.88;;;26.63;;
58974;SDS011;44751;52.236;5.178;2022-11-20T15:56:40;44.72;;;23.52;;
58974;SDS011;44751;52.236;5.178;2022-11-20T15:59:07;44.13;;;25.63;;
58974;SDS011;44751;52.236;5.178;2022-11-20T16:01:40;46.13;;;25.20;;
58974;SDS011;44751;52.236;5.178;2022-11-20T16:04:11;46.83;;;26.15;;
58974;SDS011;44751;52.236;5.178;2022-11-20T16:06:38;46.67;;;25.67;;
58974;SDS011;44751;52.236;5.178;2022-11-20T16:09:11;43.65;;;24.20;;
58974;SDS011;44751;52.236;5.178;2022-11-20T16:11:37;47.35;;;26.30;;
58974;SDS011;44751;52.236;5.178;2022-11-20T16:14:05;44.65;;;24.05;;
58974;SDS011;44751;52.236;5.178;2022-11-20T16:16:54;43.28;;;24.42;;
58974;SDS011;44751;52.236;5.178;2022-11-20T16:19:21;44.17;;;24.55;;
58974;SDS011;44751;52.236;5.178;2022-11-20T16:21:47;39.67;;;24.00;;